createdAt,value
2023-04-18T00:02:04.457Z,10.50
2023-04-18T00:04:34.664Z,9.65
2023-04-18T00:07:02.724Z,9.68
2023-04-18T00:09:30.665Z,11.27
2023-04-18T00:11:58.285Z,9.68
2023-04-18T00:14:26.451Z,10.30
2023-04-18T00:16:54.386Z,10.35
2023-04-18T00:19:22.315Z,9.30
2023-04-18T00:21:53.498Z,11.40
2023-04-18T00:24:21.213Z,12.15
2023-04-18T00:26:49.505Z,12.30
2023-04-18T00:29:17.085Z,10.50
2023-04-18T00:31:44.735Z,11.05
2023-04-18T00:34:12.953Z,11.00
2023-04-18T00:36:41.154Z,9.88
2023-04-18T00:39:10.763Z,9.10
2023-04-18T00:41:38.743Z,12.52
2023-04-18T00:44:06.941Z,10.60
2023-04-18T00:46:35.074Z,12.93
2023-04-18T00:49:03.260Z,8.80
2023-04-18T00:51:31.245Z,11.82
2023-04-18T00:53:59.052Z,10.30
2023-04-18T00:56:28.761Z,9.85
2023-04-18T00:58:57.930Z,9.40
2023-04-18T01:01:25.685Z,11.35
2023-04-18T01:03:53.524Z,11.60
2023-04-18T01:06:21.632Z,9.75
2023-04-18T01:08:49.521Z,11.68
2023-04-18T01:11:17.378Z,9.80
2023-04-18T01:13:59.838Z,11.02
2023-04-18T01:16:28.960Z,9.20
2023-04-18T01:18:57.078Z,9.60
2023-04-18T01:21:25.249Z,9.98
2023-04-18T01:23:54.575Z,11.77
2023-04-18T01:26:24.130Z,10.32
2023-04-18T01:28:51.738Z,12.30
2023-04-18T01:31:19.774Z,12.27
2023-04-18T01:33:47.708Z,11.55
2023-04-18T01:36:15.895Z,12.30
2023-04-18T01:38:43.807Z,12.70
2023-04-18T01:41:11.690Z,13.05
2023-04-18T01:43:41.035Z,9.40
2023-04-18T01:46:08.866Z,10.75
2023-04-18T01:48:36.649Z,12.73
2023-04-18T01:51:04.745Z,11.40
2023-04-18T01:53:33.086Z,11.95
2023-04-18T01:56:00.669Z,10.02
2023-04-18T01:58:29.037Z,10.50
2023-04-18T02:00:58.255Z,10.70
2023-04-18T02:03:26.844Z,12.15
2023-04-18T02:05:54.715Z,11.25
2023-04-18T02:08:22.685Z,10.90
2023-04-18T02:10:50.574Z,9.85
2023-04-18T02:13:18.588Z,10.03
2023-04-18T02:15:46.797Z,11.13
2023-04-18T02:18:16.094Z,9.80
2023-04-18T02:20:43.836Z,10.88
2023-04-18T02:23:11.611Z,10.82
2023-04-18T02:25:39.182Z,10.07
2023-04-18T02:28:07.203Z,10.57
2023-04-18T02:30:35.263Z,11.65
2023-04-18T02:33:03.112Z,10.98
2023-04-18T02:35:32.279Z,9.43
2023-04-18T02:37:59.897Z,9.27
2023-04-18T02:40:27.736Z,10.55
2023-04-18T02:42:56.158Z,11.73
2023-04-18T02:45:23.766Z,11.68
2023-04-18T02:47:55.118Z,10.65
2023-04-18T02:50:24.241Z,12.70
2023-04-18T02:52:53.428Z,11.50
2023-04-18T02:55:21.975Z,12.57
2023-04-18T02:57:49.965Z,11.27
2023-04-18T03:00:18.269Z,11.13
2023-04-18T03:02:46.176Z,12.70
2023-04-18T03:05:13.839Z,11.80
2023-04-18T03:07:41.884Z,11.43
2023-04-18T03:10:11.769Z,10.27
2023-04-18T03:12:39.347Z,10.88
2023-04-18T03:15:08.592Z,11.07
2023-04-18T03:17:37.256Z,10.75
2023-04-18T03:20:05.723Z,12.70
2023-04-18T03:22:33.479Z,11.35
2023-04-18T03:25:01.118Z,13.05
2023-04-18T03:27:30.368Z,12.87
2023-04-18T03:29:58.126Z,12.55
2023-04-18T03:32:26.398Z,11.57
2023-04-18T03:34:54.104Z,11.63
2023-04-18T03:37:21.960Z,11.90
2023-04-18T03:39:49.962Z,13.60
2023-04-18T03:42:18.061Z,12.00
2023-04-18T03:44:47.058Z,12.73
2023-04-18T03:47:15.326Z,12.88
2023-04-18T03:49:43.255Z,10.63
2023-04-18T03:52:11.290Z,13.57
2023-04-18T03:54:39.074Z,13.80
2023-04-18T03:57:06.686Z,14.20
2023-04-18T03:59:34.495Z,12.77
2023-04-18T04:02:03.584Z,13.90
2023-04-18T04:04:31.499Z,12.33
2023-04-18T04:06:59.643Z,16.13
2023-04-18T04:09:27.501Z,14.85
2023-04-18T04:11:55.324Z,12.95
2023-04-18T04:14:24.702Z,14.65
2023-04-18T04:16:52.757Z,17.37
2023-04-18T04:19:22.167Z,14.15
2023-04-18T04:21:50.171Z,17.35
2023-04-18T04:24:17.743Z,16.15
2023-04-18T04:26:46.902Z,15.10
2023-04-18T04:29:16.302Z,14.30
2023-04-18T04:31:44.128Z,14.77
2023-04-18T04:34:12.202Z,14.82
2023-04-18T04:36:43.273Z,15.70
2023-04-18T04:39:11.728Z,17.25
2023-04-18T04:41:40.356Z,16.27
2023-04-18T04:44:09.886Z,15.48
2023-04-18T04:46:40.343Z,15.93
2023-04-18T04:49:08.497Z,14.60
2023-04-18T04:51:36.172Z,13.65
2023-04-18T04:54:05.898Z,18.60
2023-04-18T04:56:34.004Z,17.83
2023-04-18T04:59:02.263Z,18.98
2023-04-18T05:01:29.909Z,15.65
2023-04-18T05:03:57.795Z,12.27
2023-04-18T05:06:25.863Z,14.77
2023-04-18T05:08:53.526Z,15.40
2023-04-18T05:11:22.572Z,17.05
2023-04-18T05:13:50.520Z,15.85
2023-04-18T05:16:18.627Z,14.38
2023-04-18T05:18:46.540Z,14.83
2023-04-18T05:21:14.388Z,15.50
2023-04-18T05:23:42.612Z,16.38
2023-04-18T05:26:10.494Z,14.90
2023-04-18T05:28:39.846Z,15.75
2023-04-18T05:31:07.898Z,13.90
2023-04-18T05:33:35.907Z,17.90
2023-04-18T05:36:04.616Z,15.05
2023-04-18T05:38:32.591Z,13.90
2023-04-18T05:41:00.397Z,16.80
2023-04-18T05:43:28.054Z,15.53
2023-04-18T05:45:59.511Z,16.73
2023-04-18T05:48:27.140Z,14.63
2023-04-18T05:50:55.120Z,18.15
2023-04-18T05:53:22.683Z,15.95
2023-04-18T05:55:50.323Z,17.90
2023-04-18T05:58:18.239Z,18.38
2023-04-18T06:00:48.399Z,17.42
2023-04-18T06:03:17.518Z,16.83
2023-04-18T06:05:45.548Z,17.52
2023-04-18T06:08:13.258Z,19.20
2023-04-18T06:10:41.230Z,21.23
2023-04-18T06:13:08.781Z,18.60
2023-04-18T06:15:36.657Z,15.38
2023-04-18T06:18:04.296Z,20.27
2023-04-18T06:20:33.497Z,17.90
2023-04-18T06:23:01.057Z,17.30
2023-04-18T06:25:28.707Z,17.20
2023-04-18T06:27:56.466Z,14.80
2023-04-18T06:30:24.306Z,17.23
2023-04-18T06:32:51.923Z,13.90
2023-04-18T06:35:19.858Z,15.50
2023-04-18T06:37:48.777Z,14.50
2023-04-18T06:40:16.411Z,13.50
2023-04-18T06:42:44.316Z,15.80
2023-04-18T06:45:12.875Z,14.33
2023-04-18T06:47:41.175Z,13.70
2023-04-18T06:50:10.273Z,13.48
2023-04-18T06:52:40.658Z,13.73
2023-04-18T06:55:10.329Z,13.57
2023-04-18T06:57:38.124Z,13.90
2023-04-18T07:00:07.021Z,14.27
2023-04-18T07:02:36.898Z,13.07
2023-04-18T07:05:04.977Z,10.82
2023-04-18T07:07:33.567Z,12.80
2023-04-18T07:10:01.342Z,16.03
2023-04-18T07:12:30.297Z,14.80
2023-04-18T07:14:57.963Z,13.07
2023-04-18T07:17:25.578Z,14.95
2023-04-18T07:19:53.435Z,18.05
2023-04-18T07:22:21.385Z,15.10
2023-04-18T07:24:49.096Z,16.33
2023-04-18T07:27:16.844Z,12.77
2023-04-18T07:29:45.727Z,14.75
2023-04-18T07:32:13.497Z,13.10
2023-04-18T07:34:41.483Z,16.77
2023-04-18T07:37:09.339Z,13.50
2023-04-18T07:39:37.008Z,14.30
2023-04-18T07:42:05.275Z,11.77
2023-04-18T07:44:32.951Z,13.57
2023-04-18T07:47:02.112Z,12.90
2023-04-18T07:49:29.744Z,12.95
2023-04-18T07:51:57.699Z,12.65
2023-04-18T07:54:25.449Z,13.23
2023-04-18T07:56:53.165Z,14.30
2023-04-18T07:59:20.829Z,11.97
2023-04-18T08:01:48.750Z,12.60
2023-04-18T08:04:17.930Z,12.13
2023-04-18T08:06:45.729Z,14.30
2023-04-18T08:09:13.594Z,13.73
2023-04-18T08:11:41.874Z,11.63
2023-04-18T08:14:09.641Z,10.80
2023-04-18T08:16:37.700Z,12.05
2023-04-18T08:19:06.046Z,11.80
2023-04-18T08:21:35.153Z,10.23
2023-04-18T08:24:02.731Z,10.37
2023-04-18T08:26:30.335Z,11.88
2023-04-18T08:28:58.185Z,11.25
2023-04-18T08:31:25.955Z,9.82
2023-04-18T08:33:53.562Z,10.82
2023-04-18T08:36:21.454Z,12.97
2023-04-18T08:38:50.425Z,9.73
2023-04-18T08:41:22.419Z,9.70
2023-04-18T08:43:50.052Z,9.90
2023-04-18T08:46:19.052Z,9.20
2023-04-18T08:48:51.297Z,10.33
2023-04-18T08:51:19.039Z,8.35
2023-04-18T08:53:48.318Z,8.52
2023-04-18T08:56:17.599Z,8.88
2023-04-18T08:58:46.121Z,8.88
2023-04-18T09:01:15.059Z,8.60
2023-04-18T09:03:44.172Z,8.82
2023-04-18T09:06:14.569Z,9.25
2023-04-18T09:08:44.351Z,8.18
2023-04-18T09:11:24.197Z,7.72
2023-04-18T09:13:51.877Z,8.23
2023-04-18T09:16:20.786Z,7.50
2023-04-18T09:19:14.619Z,6.95
2023-04-18T09:21:46.554Z,9.30
2023-04-18T09:24:20.953Z,7.47
2023-04-18T09:26:50.975Z,7.77
2023-04-18T09:29:22.483Z,8.50
2023-04-18T09:32:00.055Z,8.40
2023-04-18T09:34:29.535Z,6.07
2023-04-18T09:37:07.908Z,7.40
2023-04-18T09:39:35.748Z,11.07
2023-04-18T09:42:05.028Z,11.30
2023-04-18T09:44:33.483Z,10.10
2023-04-18T09:47:01.892Z,8.65
2023-04-18T09:49:29.727Z,7.78
2023-04-18T09:51:57.720Z,6.77
2023-04-18T09:54:26.231Z,7.68
2023-04-18T09:56:55.716Z,7.10
2023-04-18T09:59:36.600Z,7.47
2023-04-18T10:02:08.097Z,7.43
2023-04-18T10:04:37.563Z,6.97
2023-04-18T10:07:06.274Z,6.80
2023-04-18T10:09:36.770Z,6.70
2023-04-18T10:12:05.023Z,11.93
2023-04-18T10:14:35.050Z,11.57
2023-04-18T10:17:03.455Z,7.10
2023-04-18T10:19:31.934Z,6.15
2023-04-18T10:22:02.104Z,10.43
2023-04-18T10:24:53.298Z,6.38
2023-04-18T10:28:00.603Z,6.93
2023-04-18T10:30:52.550Z,6.73
2023-04-18T10:33:42.563Z,6.28
2023-04-18T10:36:20.025Z,6.22
2023-04-18T10:38:49.692Z,6.65
2023-04-18T10:41:22.623Z,7.00
2023-04-18T10:44:14.660Z,7.50
2023-04-18T10:47:04.494Z,7.90
2023-04-18T10:49:35.445Z,5.82
2023-04-18T10:52:05.977Z,6.80
2023-04-18T10:54:40.097Z,5.15
2023-04-18T10:57:09.013Z,5.73
2023-04-18T10:59:40.174Z,7.20
2023-04-18T11:02:20.003Z,7.38
2023-04-18T11:04:51.042Z,7.40
2023-04-18T11:07:18.635Z,6.95
2023-04-18T11:09:54.196Z,8.93
2023-04-18T11:12:21.873Z,6.35
2023-04-18T11:14:52.547Z,6.10
2023-04-18T11:17:23.865Z,9.65
2023-04-18T11:19:52.435Z,8.20
2023-04-18T11:22:20.035Z,10.60
2023-04-18T11:24:47.818Z,10.70
2023-04-18T11:27:16.069Z,6.85
2023-04-18T11:29:43.807Z,6.32
2023-04-18T11:32:11.780Z,6.95
2023-04-18T11:34:40.993Z,6.00
2023-04-18T11:37:08.816Z,7.07
2023-04-18T11:39:37.071Z,7.78
2023-04-18T11:42:04.974Z,7.38
2023-04-18T11:44:34.994Z,6.80
2023-04-18T11:47:03.771Z,5.77
2023-04-18T11:49:33.161Z,5.38
2023-04-18T11:52:02.239Z,5.45
2023-04-18T11:54:40.624Z,6.30
2023-04-18T11:57:19.508Z,5.53
2023-04-18T11:59:49.804Z,6.67
2023-04-18T12:02:17.648Z,5.40
2023-04-18T12:04:56.713Z,5.45
2023-04-18T12:07:34.888Z,5.90
2023-04-18T12:10:02.914Z,7.60
2023-04-18T12:12:30.686Z,5.40
2023-04-18T12:15:02.568Z,8.48
2023-04-18T12:17:30.797Z,7.13
2023-04-18T12:20:02.218Z,7.72
2023-04-18T12:22:43.166Z,6.90
2023-04-18T12:25:19.985Z,6.20
2023-04-18T12:27:52.302Z,5.45
2023-04-18T12:30:21.974Z,5.13
2023-04-18T12:32:52.513Z,5.38
2023-04-18T12:35:21.626Z,6.50
2023-04-18T12:37:52.094Z,7.73
2023-04-18T12:40:22.226Z,10.38
2023-04-18T12:42:51.460Z,12.05
2023-04-18T12:45:20.715Z,9.32
2023-04-18T12:47:50.512Z,8.82
2023-04-18T12:50:20.307Z,7.70
2023-04-18T12:52:48.428Z,6.53
2023-04-18T12:55:17.511Z,5.95
2023-04-18T12:57:45.506Z,5.93
2023-04-18T13:00:14.665Z,5.35
2023-04-18T13:02:44.295Z,5.97
2023-04-18T13:05:13.990Z,5.22
2023-04-18T13:07:42.633Z,8.80
2023-04-18T13:10:12.106Z,11.20
2023-04-18T13:12:42.826Z,5.45
2023-04-18T13:15:11.667Z,6.13
2023-04-18T13:17:40.135Z,5.90
2023-04-18T13:20:10.793Z,7.57
2023-04-18T13:22:38.638Z,5.38
2023-04-18T13:25:08.212Z,5.85
2023-04-18T13:27:35.959Z,6.60
2023-04-18T13:30:05.589Z,6.32
2023-04-18T13:32:33.518Z,8.45
2023-04-18T13:35:03.073Z,7.68
2023-04-18T13:37:31.211Z,9.18
2023-04-18T13:39:58.992Z,6.27
2023-04-18T13:42:26.705Z,7.57
2023-04-18T13:44:54.408Z,6.53
2023-04-18T13:47:23.530Z,7.10
2023-04-18T13:49:51.520Z,5.10
2023-04-18T13:52:19.098Z,6.27
2023-04-18T13:54:47.184Z,6.05
2023-04-18T13:57:14.932Z,14.05
2023-04-18T13:59:42.513Z,5.72
2023-04-18T14:02:11.233Z,6.43
2023-04-18T14:04:40.651Z,5.10
2023-04-18T14:07:09.142Z,3.80
2023-04-18T14:09:37.031Z,5.70
2023-04-18T14:12:05.305Z,4.75
2023-04-18T14:14:32.852Z,6.30
2023-04-18T14:17:00.600Z,8.50
2023-04-18T14:19:31.179Z,9.85
2023-04-18T14:22:00.253Z,7.78
2023-04-18T14:24:27.889Z,5.55
2023-04-18T14:26:57.786Z,5.97
2023-04-18T14:29:25.606Z,5.93
2023-04-18T14:31:53.194Z,5.75
2023-04-18T14:34:21.022Z,8.95
2023-04-18T14:36:48.893Z,5.18
2023-04-18T14:39:17.972Z,5.68
2023-04-18T14:41:45.848Z,4.97
2023-04-18T14:44:14.342Z,4.43
2023-04-18T14:46:43.465Z,4.95
2023-04-18T14:49:11.611Z,4.38
2023-04-18T14:51:39.181Z,5.05
2023-04-18T14:54:06.937Z,4.13
2023-04-18T14:56:36.152Z,3.65
2023-04-18T14:59:03.876Z,3.53
2023-04-18T15:01:31.549Z,3.65
2023-04-18T15:03:59.767Z,3.40
2023-04-18T15:06:28.371Z,4.87
2023-04-18T15:08:56.657Z,5.07
2023-04-18T15:11:24.500Z,3.00
2023-04-18T15:13:53.384Z,5.13
2023-04-18T15:16:21.088Z,6.07
2023-04-18T15:18:48.845Z,4.87
2023-04-18T15:21:16.402Z,4.07
2023-04-18T15:23:43.968Z,6.95
2023-04-18T15:26:11.716Z,8.43
2023-04-18T15:28:39.298Z,8.55
2023-04-18T15:31:09.475Z,11.23
2023-04-18T15:33:37.182Z,8.32
2023-04-18T15:36:05.740Z,5.95
2023-04-18T15:38:33.705Z,4.55
2023-04-18T15:41:01.230Z,3.55
2023-04-18T15:43:28.817Z,5.07
2023-04-18T15:45:56.519Z,3.25
2023-04-18T15:48:25.647Z,3.90
2023-04-18T15:50:53.210Z,4.93
2023-04-18T15:53:21.062Z,3.92
2023-04-18T15:55:48.635Z,4.07
2023-04-18T15:58:16.528Z,4.40
2023-04-18T16:00:44.351Z,3.75
2023-04-18T16:03:12.228Z,6.60
2023-04-18T16:05:41.790Z,5.35
2023-04-18T16:08:10.094Z,5.57
2023-04-18T16:10:38.118Z,7.38
2023-04-18T16:13:06.877Z,7.30
2023-04-18T16:15:45.835Z,8.77
2023-04-18T16:18:13.778Z,9.10
2023-04-18T16:20:42.751Z,8.10
2023-04-18T16:23:10.484Z,8.20
2023-04-18T16:25:38.221Z,6.47
2023-04-18T16:28:07.603Z,7.20
2023-04-18T16:30:35.160Z,7.32
2023-04-18T16:33:05.295Z,7.13
2023-04-18T16:35:33.735Z,7.60
2023-04-18T16:38:05.428Z,6.13
2023-04-18T16:40:35.012Z,7.32
2023-04-18T16:43:02.652Z,7.15
2023-04-18T16:45:30.363Z,6.63
2023-04-18T16:47:58.465Z,4.95
2023-04-18T16:50:26.321Z,6.10
2023-04-18T16:52:54.117Z,7.10
2023-04-18T16:55:23.528Z,6.75
2023-04-18T16:57:51.989Z,7.33
2023-04-18T17:00:19.983Z,7.57
2023-04-18T17:02:48.380Z,7.18
2023-04-18T17:05:16.593Z,7.30
2023-04-18T17:07:45.705Z,6.50
2023-04-18T17:10:13.421Z,9.67
2023-04-18T17:12:42.915Z,13.50
2023-04-18T17:15:11.517Z,8.55
2023-04-18T17:17:39.237Z,6.80
2023-04-18T17:20:08.517Z,9.57
2023-04-18T17:22:36.193Z,10.33
2023-04-18T17:25:05.999Z,9.27
2023-04-18T17:27:33.843Z,8.15
2023-04-18T17:30:02.846Z,8.88
2023-04-18T17:32:30.825Z,11.50
2023-04-18T17:34:58.612Z,10.17
2023-04-18T17:37:27.282Z,9.18
2023-04-18T17:39:57.229Z,14.55
2023-04-18T17:42:25.117Z,9.73
2023-04-18T17:44:52.671Z,8.07
2023-04-18T17:47:21.733Z,7.50
2023-04-18T17:49:49.486Z,8.98
2023-04-18T17:52:17.025Z,8.70
2023-04-18T17:54:44.898Z,7.25
2023-04-18T17:57:12.951Z,6.95
2023-04-18T17:59:40.577Z,7.40
2023-04-18T18:02:08.520Z,7.75
2023-04-18T18:04:38.081Z,7.38
2023-04-18T18:07:07.146Z,8.60
2023-04-18T18:09:35.150Z,8.48
2023-04-18T18:12:05.898Z,7.63
2023-04-18T18:14:33.914Z,9.05
2023-04-18T18:17:02.060Z,8.27
2023-04-18T18:19:29.683Z,10.23
2023-04-18T18:21:58.734Z,11.32
2023-04-18T18:24:27.054Z,9.37
2023-04-18T18:26:55.208Z,7.30
2023-04-18T18:29:25.076Z,9.07
2023-04-18T18:31:54.890Z,8.23
2023-04-18T18:34:22.651Z,6.72
2023-04-18T18:36:51.630Z,7.47
2023-04-18T18:39:21.110Z,7.30
2023-04-18T18:41:48.948Z,6.55
2023-04-18T18:44:16.841Z,7.35
2023-04-18T18:46:44.445Z,8.60
2023-04-18T18:49:12.360Z,7.47
2023-04-18T18:51:41.145Z,8.90
2023-04-18T18:54:08.781Z,7.60
2023-04-18T18:56:38.799Z,7.75
2023-04-18T18:59:06.607Z,7.82
2023-04-18T19:01:34.275Z,8.17
2023-04-18T19:04:02.587Z,9.25
2023-04-18T19:06:31.202Z,7.07
2023-04-18T19:08:59.117Z,6.72
2023-04-18T19:11:27.088Z,8.27
2023-04-18T19:13:56.079Z,8.00
2023-04-18T19:16:23.962Z,5.30
2023-04-18T19:18:51.964Z,6.97
2023-04-18T19:21:20.155Z,6.95
2023-04-18T19:23:48.026Z,7.80
2023-04-18T19:26:15.751Z,6.53
2023-04-18T19:28:43.593Z,7.03
2023-04-18T19:31:13.176Z,7.45
2023-04-18T19:33:41.508Z,6.90
2023-04-18T19:36:09.585Z,8.00
2023-04-18T19:38:37.650Z,9.60
2023-04-18T19:41:06.154Z,9.40
2023-04-18T19:43:34.699Z,12.55
2023-04-18T19:46:02.716Z,8.73
2023-04-18T19:48:31.730Z,13.73
2023-04-18T19:50:59.310Z,12.70
2023-04-18T19:53:27.410Z,10.68
2023-04-18T19:55:56.031Z,12.73
2023-04-18T19:58:37.834Z,11.65
2023-04-18T20:01:06.452Z,18.58
2023-04-18T20:03:35.845Z,16.23
2023-04-18T20:06:05.684Z,26.95
2023-04-18T20:08:33.667Z,23.73
2023-04-18T20:11:01.729Z,20.15
2023-04-18T20:13:29.917Z,17.92
2023-04-18T20:15:57.571Z,12.67
2023-04-18T20:18:25.378Z,33.58
2023-04-18T20:20:54.467Z,14.38
2023-04-18T20:23:22.527Z,7.43
2023-04-18T20:25:50.396Z,7.05
2023-04-18T20:28:18.075Z,7.90
2023-04-18T20:30:46.318Z,8.10
2023-04-18T20:33:14.653Z,7.80
2023-04-18T20:35:44.298Z,7.45
2023-04-18T20:38:14.853Z,8.30
2023-04-18T20:40:45.053Z,7.17
2023-04-18T20:43:13.744Z,9.50
2023-04-18T20:45:42.822Z,7.07
2023-04-18T20:48:10.834Z,6.55
2023-04-18T20:50:40.181Z,7.22
2023-04-18T20:53:07.872Z,6.87
2023-04-18T20:55:37.152Z,7.20
2023-04-18T20:58:05.170Z,8.30
2023-04-18T21:00:32.998Z,8.07
2023-04-18T21:03:00.876Z,9.52
2023-04-18T21:05:29.216Z,7.33
2023-04-18T21:07:59.581Z,6.65
2023-04-18T21:10:27.598Z,8.20
2023-04-18T21:12:56.565Z,7.35
2023-04-18T21:15:24.474Z,8.85
2023-04-18T21:17:52.980Z,9.07
2023-04-18T21:20:21.496Z,7.60
2023-04-18T21:22:49.279Z,6.55
2023-04-18T21:25:18.570Z,6.35
2023-04-18T21:27:46.202Z,8.15
2023-04-18T21:30:16.124Z,6.07
2023-04-18T21:32:43.938Z,8.32
2023-04-18T21:35:11.983Z,6.18
2023-04-18T21:37:39.796Z,6.45
2023-04-18T21:40:09.018Z,8.32
2023-04-18T21:42:37.099Z,6.80
2023-04-18T21:45:06.247Z,6.70
2023-04-18T21:47:35.169Z,6.25
2023-04-18T21:50:04.308Z,7.93
2023-04-18T21:52:32.199Z,6.60
2023-04-18T21:55:00.642Z,6.10
2023-04-18T21:57:28.231Z,6.38
2023-04-18T21:59:55.898Z,8.02
2023-04-18T22:02:23.959Z,9.27
2023-04-18T22:04:53.123Z,7.60
2023-04-18T22:07:21.615Z,6.83
2023-04-18T22:09:50.291Z,8.27
2023-04-18T22:12:18.521Z,8.13
2023-04-18T22:14:48.445Z,6.45
2023-04-18T22:17:16.197Z,7.15
2023-04-18T22:19:44.678Z,6.10
2023-04-18T22:22:14.015Z,8.00
2023-04-18T22:24:42.050Z,7.45
2023-04-18T22:27:09.672Z,7.30
2023-04-18T22:29:37.426Z,7.32
2023-04-18T22:32:05.287Z,8.00
2023-04-18T22:34:32.908Z,7.95
2023-04-18T22:37:00.711Z,7.32
2023-04-18T22:39:31.121Z,8.65
2023-04-18T22:41:58.906Z,6.10
2023-04-18T22:44:26.951Z,6.27
2023-04-18T22:46:55.657Z,7.78
2023-04-18T22:49:23.506Z,7.35
2023-04-18T22:51:54.644Z,7.53
2023-04-18T22:54:22.299Z,6.63
2023-04-18T22:56:51.380Z,7.63
2023-04-18T22:59:19.182Z,7.40
2023-04-18T23:01:46.834Z,10.05
2023-04-18T23:04:15.118Z,8.68
2023-04-18T23:06:42.973Z,8.75
2023-04-18T23:09:10.596Z,8.00
2023-04-18T23:11:38.341Z,10.90
2023-04-18T23:14:08.570Z,8.40
2023-04-18T23:16:36.785Z,9.70
2023-04-18T23:19:05.506Z,9.32
2023-04-18T23:21:33.468Z,9.60
2023-04-18T23:24:01.304Z,9.73
2023-04-18T23:26:29.115Z,11.07
2023-04-18T23:28:56.915Z,10.10
2023-04-18T23:31:26.207Z,9.35
2023-04-18T23:33:54.049Z,14.23
2023-04-18T23:36:21.858Z,11.43
2023-04-18T23:38:49.746Z,10.82
2023-04-18T23:41:17.602Z,10.23
2023-04-18T23:43:45.260Z,11.02
2023-04-18T23:46:13.312Z,12.57
2023-04-18T23:48:42.405Z,10.15
2023-04-18T23:51:10.034Z,11.60
2023-04-18T23:53:37.757Z,12.13
2023-04-18T23:56:05.801Z,9.75
2023-04-18T23:58:33.389Z,10.13
